KIAG/IAG METAR and TAF weather

Enter ICAO airport designator
Station Type Date Time Source
KIAG METAR 2020/01/19 00:00 UTC NOAA

KIAG 190000Z 22021G26KT 8SM -RA OVC011 03/02 A2950 RMK AO2 PK WND 22026/2359 P0001 T00330017 $


Station Type Date Time Source
KIAG Decoded METAR 2020/01/19 00:00 UTC NOAA

NIAGARA FALLS INTERNATIONAL AIRPORT, NY, United States (KIAG) 43-07N 078-56W 182M
Jan 18, 2020 - 07:00 PM EST / 2020.01.19 0000 UTC
Wind: from the SW (220 degrees) at 24 MPH (21 KT) gusting to 30 MPH (26 KT):0
Visibility: 8 mile(s):0
Sky conditions: overcast
Weather: light rain
Precipitation last hour: 0.01 inches
Temperature: 37.9 F (3.3 C)
Dew Point: 35.1 F (1.7 C)
Relative Humidity: 89%
Pressure (altimeter): 29.5 in. Hg (998 hPa)
ob: KIAG 190000Z 22021G26KT 8SM -RA OVC011 03/02 A2950 RMK AO2 PK WND 22026/2359 P0001 T00330017
cycle: 0

Station Type Date Time Source
KIAG TAF 2020/01/18 21:28 UTC NOAA

TAF
AMD KIAG 182126Z 1821/1918 17010KT 1/2SM SN SCT007 OVC015
TEMPO 1821/1823 2SM -SNPL
FM182300 21022G35KT 5SM -SNRA BR OVC007
FM190200 24027G44KT P6SM VCSH SCT007 OVC015
FM190800 25022G38KT P6SM VCSH OVC025
FM191600 30015G25KT P6SM OVC025

Example: see airport list